sensor_id;sensor_type;location;lat;lon;timestamp;P1;durP1;ratioP1;P2;durP2;ratioP2
41293;SDS011;27037;52.010;4.446;2023-08-06T00:02:23;13.40;;;9.30;;
41293;SDS011;27037;52.010;4.446;2023-08-06T00:04:48;13.32;;;10.05;;
41293;SDS011;27037;52.010;4.446;2023-08-06T00:07:14;13.32;;;9.50;;
41293;SDS011;27037;52.010;4.446;2023-08-06T00:09:40;15.50;;;10.43;;
41293;SDS011;27037;52.010;4.446;2023-08-06T00:12:06;12.85;;;9.98;;
41293;SDS011;27037;52.010;4.446;2023-08-06T00:14:31;14.73;;;10.38;;
41293;SDS011;27037;52.010;4.446;2023-08-06T00:16:57;15.07;;;10.48;;
41293;SDS011;27037;52.010;4.446;2023-08-06T00:19:23;13.05;;;10.38;;
41293;SDS011;27037;52.010;4.446;2023-08-06T00:21:48;14.13;;;10.50;;
41293;SDS011;27037;52.010;4.446;2023-08-06T00:24:14;15.70;;;10.95;;
41293;SDS011;27037;52.010;4.446;2023-08-06T00:26:40;17.08;;;10.88;;
41293;SDS011;27037;52.010;4.446;2023-08-06T00:29:05;15.80;;;11.27;;
41293;SDS011;27037;52.010;4.446;2023-08-06T00:31:31;16.52;;;10.77;;
41293;SDS011;27037;52.010;4.446;2023-08-06T00:33:56;13.43;;;10.55;;
41293;SDS011;27037;52.010;4.446;2023-08-06T00:36:22;18.50;;;12.07;;
41293;SDS011;27037;52.010;4.446;2023-08-06T00:38:48;18.63;;;11.45;;
41293;SDS011;27037;52.010;4.446;2023-08-06T00:41:13;16.17;;;10.95;;
41293;SDS011;27037;52.010;4.446;2023-08-06T00:43:39;14.88;;;11.30;;
41293;SDS011;27037;52.010;4.446;2023-08-06T00:46:05;12.98;;;10.63;;
41293;SDS011;27037;52.010;4.446;2023-08-06T00:48:31;15.35;;;10.98;;
41293;SDS011;27037;52.010;4.446;2023-08-06T00:50:56;16.95;;;11.18;;
41293;SDS011;27037;52.010;4.446;2023-08-06T00:53:22;15.40;;;11.15;;
41293;SDS011;27037;52.010;4.446;2023-08-06T00:55:49;17.55;;;11.50;;
41293;SDS011;27037;52.010;4.446;2023-08-06T00:58:15;16.10;;;12.43;;
41293;SDS011;27037;52.010;4.446;2023-08-06T01:00:41;15.40;;;11.80;;
41293;SDS011;27037;52.010;4.446;2023-08-06T01:03:07;16.05;;;11.13;;
41293;SDS011;27037;52.010;4.446;2023-08-06T01:05:33;17.67;;;12.32;;
41293;SDS011;27037;52.010;4.446;2023-08-06T01:10:31;15.80;;;11.60;;
41293;SDS011;27037;52.010;4.446;2023-08-06T01:15:41;16.45;;;11.18;;
41293;SDS011;27037;52.010;4.446;2023-08-06T01:18:11;17.95;;;11.48;;
41293;SDS011;27037;52.010;4.446;2023-08-06T01:20:37;17.48;;;12.23;;
41293;SDS011;27037;52.010;4.446;2023-08-06T01:23:03;13.85;;;11.38;;
41293;SDS011;27037;52.010;4.446;2023-08-06T01:25:29;15.40;;;11.30;;
41293;SDS011;27037;52.010;4.446;2023-08-06T01:28:04;14.35;;;11.30;;
41293;SDS011;27037;52.010;4.446;2023-08-06T01:30:35;15.45;;;11.23;;
41293;SDS011;27037;52.010;4.446;2023-08-06T01:33:06;14.32;;;10.75;;
41293;SDS011;27037;52.010;4.446;2023-08-06T01:35:39;12.73;;;10.10;;
41293;SDS011;27037;52.010;4.446;2023-08-06T01:38:05;15.45;;;10.80;;
41293;SDS011;27037;52.010;4.446;2023-08-06T01:40:31;11.98;;;9.98;;
41293;SDS011;27037;52.010;4.446;2023-08-06T01:42:58;13.15;;;10.13;;
41293;SDS011;27037;52.010;4.446;2023-08-06T01:45:23;13.57;;;10.15;;
41293;SDS011;27037;52.010;4.446;2023-08-06T01:47:49;14.98;;;10.38;;
41293;SDS011;27037;52.010;4.446;2023-08-06T01:50:14;13.88;;;9.63;;
41293;SDS011;27037;52.010;4.446;2023-08-06T01:52:40;11.40;;;9.02;;
41293;SDS011;27037;52.010;4.446;2023-08-06T01:55:06;12.23;;;9.18;;
41293;SDS011;27037;52.010;4.446;2023-08-06T01:57:31;12.23;;;9.32;;
41293;SDS011;27037;52.010;4.446;2023-08-06T01:59:57;10.70;;;8.55;;
41293;SDS011;27037;52.010;4.446;2023-08-06T02:02:23;11.68;;;8.05;;
41293;SDS011;27037;52.010;4.446;2023-08-06T02:04:48;10.73;;;7.90;;
41293;SDS011;27037;52.010;4.446;2023-08-06T02:07:14;10.45;;;7.15;;
41293;SDS011;27037;52.010;4.446;2023-08-06T02:09:40;11.43;;;7.35;;
41293;SDS011;27037;52.010;4.446;2023-08-06T02:12:06;8.00;;;6.40;;
41293;SDS011;27037;52.010;4.446;2023-08-06T02:14:32;6.78;;;5.80;;
41293;SDS011;27037;52.010;4.446;2023-08-06T02:16:58;6.78;;;5.40;;
41293;SDS011;27037;52.010;4.446;2023-08-06T02:19:24;5.13;;;3.80;;
41293;SDS011;27037;52.010;4.446;2023-08-06T02:21:49;5.20;;;3.95;;
41293;SDS011;27037;52.010;4.446;2023-08-06T02:24:15;5.95;;;3.92;;
41293;SDS011;27037;52.010;4.446;2023-08-06T02:26:40;6.03;;;3.78;;
41293;SDS011;27037;52.010;4.446;2023-08-06T02:29:06;4.43;;;3.88;;
41293;SDS011;27037;52.010;4.446;2023-08-06T02:31:31;5.07;;;3.90;;
41293;SDS011;27037;52.010;4.446;2023-08-06T02:33:57;5.07;;;4.07;;
41293;SDS011;27037;52.010;4.446;2023-08-06T02:36:23;5.50;;;4.05;;
41293;SDS011;27037;52.010;4.446;2023-08-06T02:38:49;6.32;;;4.68;;
41293;SDS011;27037;52.010;4.446;2023-08-06T02:41:15;5.25;;;4.25;;
41293;SDS011;27037;52.010;4.446;2023-08-06T02:43:40;5.22;;;4.03;;
41293;SDS011;27037;52.010;4.446;2023-08-06T02:46:06;5.88;;;3.60;;
41293;SDS011;27037;52.010;4.446;2023-08-06T02:48:32;6.22;;;3.03;;
41293;SDS011;27037;52.010;4.446;2023-08-06T02:50:58;3.47;;;2.60;;
41293;SDS011;27037;52.010;4.446;2023-08-06T02:53:26;3.80;;;2.08;;
41293;SDS011;27037;52.010;4.446;2023-08-06T02:55:52;6.25;;;1.63;;
41293;SDS011;27037;52.010;4.446;2023-08-06T02:58:18;6.80;;;1.50;;
41293;SDS011;27037;52.010;4.446;2023-08-06T03:00:58;2.58;;;1.33;;
41293;SDS011;27037;52.010;4.446;2023-08-06T03:03:24;5.93;;;1.73;;
41293;SDS011;27037;52.010;4.446;2023-08-06T03:05:53;2.95;;;1.05;;
41293;SDS011;27037;52.010;4.446;2023-08-06T03:08:19;4.20;;;1.00;;
41293;SDS011;27037;52.010;4.446;2023-08-06T03:10:47;3.08;;;1.70;;
41293;SDS011;27037;52.010;4.446;2023-08-06T03:13:13;5.32;;;2.38;;
41293;SDS011;27037;52.010;4.446;2023-08-06T03:15:39;6.80;;;2.80;;
41293;SDS011;27037;52.010;4.446;2023-08-06T03:18:05;9.00;;;4.38;;
41293;SDS011;27037;52.010;4.446;2023-08-06T03:20:31;6.82;;;5.05;;
41293;SDS011;27037;52.010;4.446;2023-08-06T03:22:57;9.18;;;5.25;;
41293;SDS011;27037;52.010;4.446;2023-08-06T03:25:23;8.85;;;6.20;;
41293;SDS011;27037;52.010;4.446;2023-08-06T03:27:49;9.50;;;6.75;;
41293;SDS011;27037;52.010;4.446;2023-08-06T03:30:15;9.75;;;7.22;;
41293;SDS011;27037;52.010;4.446;2023-08-06T03:32:40;9.85;;;7.20;;
41293;SDS011;27037;52.010;4.446;2023-08-06T03:35:06;11.48;;;7.82;;
41293;SDS011;27037;52.010;4.446;2023-08-06T03:37:32;11.82;;;8.70;;
41293;SDS011;27037;52.010;4.446;2023-08-06T03:39:58;13.63;;;10.52;;
41293;SDS011;27037;52.010;4.446;2023-08-06T03:42:23;14.27;;;11.20;;
41293;SDS011;27037;52.010;4.446;2023-08-06T03:44:49;14.60;;;10.85;;
41293;SDS011;27037;52.010;4.446;2023-08-06T03:47:14;13.93;;;10.95;;
41293;SDS011;27037;52.010;4.446;2023-08-06T03:49:40;18.33;;;11.50;;
41293;SDS011;27037;52.010;4.446;2023-08-06T03:52:06;17.58;;;11.75;;
41293;SDS011;27037;52.010;4.446;2023-08-06T03:54:32;18.40;;;11.45;;
41293;SDS011;27037;52.010;4.446;2023-08-06T03:56:57;13.02;;;7.60;;
41293;SDS011;27037;52.010;4.446;2023-08-06T03:59:23;10.85;;;7.00;;
41293;SDS011;27037;52.010;4.446;2023-08-06T04:01:48;13.27;;;6.70;;
41293;SDS011;27037;52.010;4.446;2023-08-06T04:04:14;12.18;;;6.38;;
41293;SDS011;27037;52.010;4.446;2023-08-06T04:06:40;11.82;;;5.70;;
41293;SDS011;27037;52.010;4.446;2023-08-06T04:09:05;10.35;;;5.75;;
41293;SDS011;27037;52.010;4.446;2023-08-06T04:11:31;11.30;;;5.47;;
41293;SDS011;27037;52.010;4.446;2023-08-06T04:13:57;8.50;;;5.53;;
41293;SDS011;27037;52.010;4.446;2023-08-06T04:16:22;11.85;;;5.20;;
41293;SDS011;27037;52.010;4.446;2023-08-06T04:18:48;8.20;;;4.60;;
41293;SDS011;27037;52.010;4.446;2023-08-06T04:21:13;10.52;;;5.22;;
41293;SDS011;27037;52.010;4.446;2023-08-06T04:23:39;9.15;;;5.43;;
41293;SDS011;27037;52.010;4.446;2023-08-06T04:26:05;8.63;;;5.22;;
41293;SDS011;27037;52.010;4.446;2023-08-06T04:28:30;7.97;;;4.28;;
41293;SDS011;27037;52.010;4.446;2023-08-06T04:30:56;8.02;;;4.57;;
41293;SDS011;27037;52.010;4.446;2023-08-06T04:33:21;10.38;;;4.85;;
41293;SDS011;27037;52.010;4.446;2023-08-06T04:35:47;10.75;;;4.50;;
41293;SDS011;27037;52.010;4.446;2023-08-06T04:38:18;9.68;;;4.80;;
41293;SDS011;27037;52.010;4.446;2023-08-06T04:40:44;11.32;;;5.10;;
41293;SDS011;27037;52.010;4.446;2023-08-06T04:43:09;11.18;;;4.88;;
41293;SDS011;27037;52.010;4.446;2023-08-06T04:45:35;12.57;;;5.20;;
41293;SDS011;27037;52.010;4.446;2023-08-06T04:48:00;9.82;;;5.00;;
41293;SDS011;27037;52.010;4.446;2023-08-06T04:50:26;9.38;;;5.18;;
41293;SDS011;27037;52.010;4.446;2023-08-06T04:52:52;9.32;;;4.97;;
41293;SDS011;27037;52.010;4.446;2023-08-06T04:55:17;8.35;;;4.82;;
41293;SDS011;27037;52.010;4.446;2023-08-06T04:57:43;11.70;;;5.40;;
41293;SDS011;27037;52.010;4.446;2023-08-06T05:00:09;10.43;;;5.43;;
41293;SDS011;27037;52.010;4.446;2023-08-06T05:02:34;10.10;;;5.28;;
41293;SDS011;27037;52.010;4.446;2023-08-06T05:05:03;12.07;;;5.63;;
41293;SDS011;27037;52.010;4.446;2023-08-06T05:07:28;13.80;;;6.05;;
41293;SDS011;27037;52.010;4.446;2023-08-06T05:09:54;11.90;;;5.90;;
41293;SDS011;27037;52.010;4.446;2023-08-06T05:12:20;11.30;;;5.82;;
41293;SDS011;27037;52.010;4.446;2023-08-06T05:14:45;10.32;;;5.55;;
41293;SDS011;27037;52.010;4.446;2023-08-06T05:17:11;10.38;;;5.78;;
41293;SDS011;27037;52.010;4.446;2023-08-06T05:19:36;12.98;;;5.80;;
41293;SDS011;27037;52.010;4.446;2023-08-06T05:22:02;12.73;;;5.38;;
41293;SDS011;27037;52.010;4.446;2023-08-06T05:24:28;11.10;;;5.50;;
41293;SDS011;27037;52.010;4.446;2023-08-06T05:26:54;14.48;;;5.20;;
41293;SDS011;27037;52.010;4.446;2023-08-06T05:29:19;11.82;;;5.00;;
41293;SDS011;27037;52.010;4.446;2023-08-06T05:31:45;14.73;;;5.03;;
41293;SDS011;27037;52.010;4.446;2023-08-06T05:34:10;12.70;;;5.55;;
41293;SDS011;27037;52.010;4.446;2023-08-06T05:36:36;12.30;;;4.97;;
41293;SDS011;27037;52.010;4.446;2023-08-06T05:39:02;11.57;;;4.82;;
41293;SDS011;27037;52.010;4.446;2023-08-06T05:41:27;10.63;;;4.80;;
41293;SDS011;27037;52.010;4.446;2023-08-06T05:43:53;12.57;;;4.80;;
41293;SDS011;27037;52.010;4.446;2023-08-06T05:46:18;11.00;;;4.45;;
41293;SDS011;27037;52.010;4.446;2023-08-06T05:48:44;9.63;;;3.53;;
41293;SDS011;27037;52.010;4.446;2023-08-06T05:51:10;9.32;;;3.20;;
41293;SDS011;27037;52.010;4.446;2023-08-06T05:53:37;7.70;;;3.10;;
41293;SDS011;27037;52.010;4.446;2023-08-06T05:56:03;9.13;;;3.05;;
41293;SDS011;27037;52.010;4.446;2023-08-06T05:58:29;9.65;;;2.70;;
41293;SDS011;27037;52.010;4.446;2023-08-06T06:00:55;9.23;;;2.70;;
41293;SDS011;27037;52.010;4.446;2023-08-06T06:03:21;10.05;;;2.55;;
41293;SDS011;27037;52.010;4.446;2023-08-06T06:05:47;6.07;;;2.25;;
41293;SDS011;27037;52.010;4.446;2023-08-06T06:08:12;7.32;;;2.20;;
41293;SDS011;27037;52.010;4.446;2023-08-06T06:10:38;4.78;;;2.20;;
41293;SDS011;27037;52.010;4.446;2023-08-06T06:13:03;5.55;;;2.05;;
41293;SDS011;27037;52.010;4.446;2023-08-06T06:15:29;6.63;;;1.98;;
41293;SDS011;27037;52.010;4.446;2023-08-06T06:17:54;8.02;;;1.73;;
41293;SDS011;27037;52.010;4.446;2023-08-06T06:20:20;10.40;;;2.00;;
41293;SDS011;27037;52.010;4.446;2023-08-06T06:22:46;8.35;;;1.85;;
41293;SDS011;27037;52.010;4.446;2023-08-06T06:25:11;6.88;;;1.85;;
41293;SDS011;27037;52.010;4.446;2023-08-06T06:27:37;8.02;;;2.10;;
41293;SDS011;27037;52.010;4.446;2023-08-06T06:30:03;7.80;;;2.30;;
41293;SDS011;27037;52.010;4.446;2023-08-06T06:32:29;3.97;;;1.92;;
41293;SDS011;27037;52.010;4.446;2023-08-06T06:34:54;5.97;;;1.98;;
41293;SDS011;27037;52.010;4.446;2023-08-06T06:37:20;8.05;;;1.80;;
41293;SDS011;27037;52.010;4.446;2023-08-06T06:39:46;7.13;;;1.80;;
41293;SDS011;27037;52.010;4.446;2023-08-06T06:42:11;8.48;;;2.10;;
41293;SDS011;27037;52.010;4.446;2023-08-06T06:44:37;6.35;;;2.20;;
41293;SDS011;27037;52.010;4.446;2023-08-06T06:47:03;5.20;;;1.77;;
41293;SDS011;27037;52.010;4.446;2023-08-06T06:49:28;5.32;;;2.10;;
41293;SDS011;27037;52.010;4.446;2023-08-06T06:51:54;7.35;;;2.17;;
41293;SDS011;27037;52.010;4.446;2023-08-06T06:54:20;6.32;;;2.10;;
41293;SDS011;27037;52.010;4.446;2023-08-06T06:56:45;6.25;;;1.98;;
41293;SDS011;27037;52.010;4.446;2023-08-06T06:59:12;3.47;;;2.22;;
41293;SDS011;27037;52.010;4.446;2023-08-06T07:01:37;7.53;;;2.40;;
41293;SDS011;27037;52.010;4.446;2023-08-06T07:04:03;6.50;;;2.38;;
41293;SDS011;27037;52.010;4.446;2023-08-06T07:06:30;11.93;;;3.08;;
41293;SDS011;27037;52.010;4.446;2023-08-06T07:08:56;6.70;;;2.58;;
41293;SDS011;27037;52.010;4.446;2023-08-06T07:11:21;9.70;;;2.70;;
41293;SDS011;27037;52.010;4.446;2023-08-06T07:13:47;7.75;;;2.70;;
41293;SDS011;27037;52.010;4.446;2023-08-06T07:16:12;5.70;;;2.72;;
41293;SDS011;27037;52.010;4.446;2023-08-06T07:18:38;7.78;;;2.60;;
41293;SDS011;27037;52.010;4.446;2023-08-06T07:21:04;7.65;;;3.22;;
41293;SDS011;27037;52.010;4.446;2023-08-06T07:23:29;5.70;;;2.50;;
41293;SDS011;27037;52.010;4.446;2023-08-06T07:25:55;9.85;;;2.97;;
41293;SDS011;27037;52.010;4.446;2023-08-06T07:28:20;5.05;;;2.40;;
41293;SDS011;27037;52.010;4.446;2023-08-06T07:30:47;3.95;;;2.20;;
41293;SDS011;27037;52.010;4.446;2023-08-06T07:33:13;7.70;;;2.50;;
41293;SDS011;27037;52.010;4.446;2023-08-06T07:35:38;5.60;;;2.35;;
41293;SDS011;27037;52.010;4.446;2023-08-06T07:38:04;5.88;;;2.00;;
41293;SDS011;27037;52.010;4.446;2023-08-06T07:40:30;5.97;;;2.35;;
41293;SDS011;27037;52.010;4.446;2023-08-06T07:42:56;6.30;;;2.50;;
41293;SDS011;27037;52.010;4.446;2023-08-06T07:45:22;7.80;;;4.65;;
41293;SDS011;27037;52.010;4.446;2023-08-06T07:47:47;42.92;;;25.70;;
41293;SDS011;27037;52.010;4.446;2023-08-06T07:50:13;38.25;;;22.05;;
41293;SDS011;27037;52.010;4.446;2023-08-06T07:52:39;6.50;;;2.50;;
41293;SDS011;27037;52.010;4.446;2023-08-06T07:55:05;6.65;;;2.33;;
41293;SDS011;27037;52.010;4.446;2023-08-06T07:57:31;8.93;;;2.67;;
41293;SDS011;27037;52.010;4.446;2023-08-06T07:59:57;5.70;;;2.60;;
41293;SDS011;27037;52.010;4.446;2023-08-06T08:02:23;6.57;;;2.65;;
41293;SDS011;27037;52.010;4.446;2023-08-06T08:04:48;7.35;;;2.35;;
41293;SDS011;27037;52.010;4.446;2023-08-06T08:07:14;6.50;;;2.53;;
41293;SDS011;27037;52.010;4.446;2023-08-06T08:09:40;6.32;;;2.40;;
41293;SDS011;27037;52.010;4.446;2023-08-06T08:12:06;8.18;;;2.40;;
41293;SDS011;27037;52.010;4.446;2023-08-06T08:14:31;8.70;;;2.40;;
41293;SDS011;27037;52.010;4.446;2023-08-06T08:17:02;6.18;;;2.50;;
41293;SDS011;27037;52.010;4.446;2023-08-06T08:19:28;7.00;;;2.25;;
41293;SDS011;27037;52.010;4.446;2023-08-06T08:21:54;4.97;;;2.50;;
41293;SDS011;27037;52.010;4.446;2023-08-06T08:24:20;5.50;;;2.25;;
41293;SDS011;27037;52.010;4.446;2023-08-06T08:26:48;8.23;;;2.63;;
41293;SDS011;27037;52.010;4.446;2023-08-06T08:29:15;5.30;;;2.30;;
41293;SDS011;27037;52.010;4.446;2023-08-06T08:31:40;7.47;;;2.38;;
41293;SDS011;27037;52.010;4.446;2023-08-06T08:34:06;4.55;;;2.10;;
41293;SDS011;27037;52.010;4.446;2023-08-06T08:36:31;4.65;;;2.33;;
41293;SDS011;27037;52.010;4.446;2023-08-06T08:38:57;6.43;;;2.47;;
41293;SDS011;27037;52.010;4.446;2023-08-06T08:41:23;5.97;;;2.33;;
41293;SDS011;27037;52.010;4.446;2023-08-06T08:43:49;10.82;;;2.50;;
41293;SDS011;27037;52.010;4.446;2023-08-06T08:46:19;2.65;;;1.90;;
41293;SDS011;27037;52.010;4.446;2023-08-06T08:48:45;3.67;;;1.88;;
41293;SDS011;27037;52.010;4.446;2023-08-06T08:51:11;6.88;;;2.28;;
41293;SDS011;27037;52.010;4.446;2023-08-06T08:53:38;4.53;;;2.10;;
41293;SDS011;27037;52.010;4.446;2023-08-06T08:56:04;4.25;;;2.28;;
41293;SDS011;27037;52.010;4.446;2023-08-06T08:58:30;5.20;;;2.00;;
41293;SDS011;27037;52.010;4.446;2023-08-06T09:00:56;3.10;;;2.03;;
41293;SDS011;27037;52.010;4.446;2023-08-06T09:03:22;6.43;;;1.95;;
41293;SDS011;27037;52.010;4.446;2023-08-06T09:05:49;6.60;;;2.03;;
41293;SDS011;27037;52.010;4.446;2023-08-06T09:08:21;4.97;;;1.90;;
41293;SDS011;27037;52.010;4.446;2023-08-06T09:10:54;5.65;;;1.95;;
41293;SDS011;27037;52.010;4.446;2023-08-06T09:13:21;7.00;;;2.03;;
41293;SDS011;27037;52.010;4.446;2023-08-06T09:15:48;3.47;;;1.95;;
41293;SDS011;27037;52.010;4.446;2023-08-06T09:18:15;4.53;;;1.90;;
41293;SDS011;27037;52.010;4.446;2023-08-06T09:20:52;2.95;;;1.70;;
41293;SDS011;27037;52.010;4.446;2023-08-06T09:23:17;3.08;;;1.65;;
41293;SDS011;27037;52.010;4.446;2023-08-06T09:25:45;5.07;;;2.00;;
41293;SDS011;27037;52.010;4.446;2023-08-06T09:28:11;3.08;;;1.90;;
41293;SDS011;27037;52.010;4.446;2023-08-06T09:30:36;5.28;;;2.05;;
41293;SDS011;27037;52.010;4.446;2023-08-06T09:33:03;4.13;;;1.77;;
41293;SDS011;27037;52.010;4.446;2023-08-06T09:35:33;3.40;;;1.60;;
41293;SDS011;27037;52.010;4.446;2023-08-06T09:38:08;6.68;;;1.70;;
41293;SDS011;27037;52.010;4.446;2023-08-06T09:40:35;3.35;;;1.50;;
41293;SDS011;27037;52.010;4.446;2023-08-06T09:43:01;6.18;;;1.80;;
41293;SDS011;27037;52.010;4.446;2023-08-06T09:45:31;5.07;;;1.70;;
41293;SDS011;27037;52.010;4.446;2023-08-06T09:47:58;4.03;;;1.42;;
41293;SDS011;27037;52.010;4.446;2023-08-06T09:50:28;6.82;;;1.60;;
41293;SDS011;27037;52.010;4.446;2023-08-06T09:52:58;3.00;;;1.23;;
41293;SDS011;27037;52.010;4.446;2023-08-06T09:55:25;3.08;;;1.30;;
41293;SDS011;27037;52.010;4.446;2023-08-06T09:57:51;5.57;;;1.52;;
41293;SDS011;27037;52.010;4.446;2023-08-06T10:00:18;2.88;;;1.63;;
41293;SDS011;27037;52.010;4.446;2023-08-06T10:02:44;5.10;;;1.65;;
41293;SDS011;27037;52.010;4.446;2023-08-06T10:05:11;2.50;;;1.60;;
41293;SDS011;27037;52.010;4.446;2023-08-06T10:07:40;3.25;;;1.35;;
41293;SDS011;27037;52.010;4.446;2023-08-06T10:10:08;5.28;;;1.45;;
41293;SDS011;27037;52.010;4.446;2023-08-06T10:12:40;4.18;;;1.60;;
41293;SDS011;27037;52.010;4.446;2023-08-06T10:15:11;2.28;;;1.30;;
41293;SDS011;27037;52.010;4.446;2023-08-06T10:17:39;3.65;;;1.58;;
41293;SDS011;27037;52.010;4.446;2023-08-06T10:20:07;3.50;;;1.50;;
41293;SDS011;27037;52.010;4.446;2023-08-06T10:22:34;2.60;;;1.27;;
41293;SDS011;27037;52.010;4.446;2023-08-06T10:25:00;6.40;;;1.50;;
41293;SDS011;27037;52.010;4.446;2023-08-06T10:27:39;3.88;;;1.30;;
41293;SDS011;27037;52.010;4.446;2023-08-06T10:35:44;5.30;;;1.70;;
41293;SDS011;27037;52.010;4.446;2023-08-06T10:38:14;3.03;;;1.55;;
41293;SDS011;27037;52.010;4.446;2023-08-06T10:40:43;3.58;;;1.30;;
41293;SDS011;27037;52.010;4.446;2023-08-06T10:43:35;5.22;;;1.60;;
41293;SDS011;27037;52.010;4.446;2023-08-06T10:46:01;3.30;;;1.75;;
41293;SDS011;27037;52.010;4.446;2023-08-06T10:48:29;3.10;;;1.70;;
41293;SDS011;27037;52.010;4.446;2023-08-06T10:51:10;4.05;;;1.50;;
41293;SDS011;27037;52.010;4.446;2023-08-06T10:53:38;5.10;;;1.50;;
41293;SDS011;27037;52.010;4.446;2023-08-06T10:58:47;3.00;;;1.50;;
41293;SDS011;27037;52.010;4.446;2023-08-06T11:01:13;4.15;;;1.40;;
41293;SDS011;27037;52.010;4.446;2023-08-06T11:03:40;2.67;;;1.45;;
41293;SDS011;27037;52.010;4.446;2023-08-06T11:06:07;3.15;;;1.38;;
41293;SDS011;27037;52.010;4.446;2023-08-06T11:08:34;2.55;;;1.00;;
41293;SDS011;27037;52.010;4.446;2023-08-06T11:11:13;4.22;;;1.42;;
41293;SDS011;27037;52.010;4.446;2023-08-06T11:13:41;3.08;;;1.20;;
41293;SDS011;27037;52.010;4.446;2023-08-06T11:16:23;2.00;;;1.17;;
41293;SDS011;27037;52.010;4.446;2023-08-06T11:18:52;4.07;;;1.30;;
41293;SDS011;27037;52.010;4.446;2023-08-06T11:21:22;2.72;;;1.30;;
41293;SDS011;27037;52.010;4.446;2023-08-06T11:23:49;3.55;;;1.10;;
41293;SDS011;27037;52.010;4.446;2023-08-06T11:26:22;4.88;;;1.23;;
41293;SDS011;27037;52.010;4.446;2023-08-06T11:28:48;2.88;;;1.40;;
41293;SDS011;27037;52.010;4.446;2023-08-06T11:31:21;4.63;;;1.50;;
41293;SDS011;27037;52.010;4.446;2023-08-06T11:33:48;3.13;;;1.20;;
41293;SDS011;27037;52.010;4.446;2023-08-06T11:36:16;3.67;;;1.38;;
41293;SDS011;27037;52.010;4.446;2023-08-06T11:38:41;2.50;;;1.05;;
41293;SDS011;27037;52.010;4.446;2023-08-06T11:41:07;4.22;;;1.27;;
41293;SDS011;27037;52.010;4.446;2023-08-06T11:43:33;2.00;;;1.30;;
41293;SDS011;27037;52.010;4.446;2023-08-06T11:45:58;3.28;;;1.52;;
41293;SDS011;27037;52.010;4.446;2023-08-06T11:48:25;2.72;;;1.25;;
41293;SDS011;27037;52.010;4.446;2023-08-06T11:50:53;4.32;;;1.23;;
41293;SDS011;27037;52.010;4.446;2023-08-06T11:53:20;4.60;;;1.10;;
41293;SDS011;27037;52.010;4.446;2023-08-06T11:55:46;2.63;;;0.88;;
41293;SDS011;27037;52.010;4.446;2023-08-06T11:58:11;3.63;;;1.00;;
41293;SDS011;27037;52.010;4.446;2023-08-06T12:00:37;1.73;;;1.10;;
41293;SDS011;27037;52.010;4.446;2023-08-06T12:03:04;3.38;;;1.08;;
41293;SDS011;27037;52.010;4.446;2023-08-06T12:05:30;5.22;;;1.13;;
41293;SDS011;27037;52.010;4.446;2023-08-06T12:07:58;2.67;;;0.90;;
41293;SDS011;27037;52.010;4.446;2023-08-06T12:10:26;4.07;;;1.08;;
41293;SDS011;27037;52.010;4.446;2023-08-06T12:12:53;5.63;;;1.00;;
41293;SDS011;27037;52.010;4.446;2023-08-06T12:15:20;4.20;;;1.00;;
41293;SDS011;27037;52.010;4.446;2023-08-06T12:17:48;3.42;;;1.10;;
41293;SDS011;27037;52.010;4.446;2023-08-06T12:20:14;5.45;;;1.10;;
41293;SDS011;27037;52.010;4.446;2023-08-06T12:22:40;2.83;;;0.90;;
41293;SDS011;27037;52.010;4.446;2023-08-06T12:25:10;2.25;;;0.80;;
41293;SDS011;27037;52.010;4.446;2023-08-06T12:27:39;4.25;;;0.70;;
41293;SDS011;27037;52.010;4.446;2023-08-06T12:30:07;3.03;;;1.02;;
41293;SDS011;27037;52.010;4.446;2023-08-06T12:32:33;2.92;;;1.00;;
41293;SDS011;27037;52.010;4.446;2023-08-06T12:34:59;2.70;;;0.93;;
41293;SDS011;27037;52.010;4.446;2023-08-06T12:37:26;3.78;;;1.10;;
41293;SDS011;27037;52.010;4.446;2023-08-06T12:39:52;3.45;;;0.90;;
41293;SDS011;27037;52.010;4.446;2023-08-06T12:42:18;3.53;;;0.63;;
41293;SDS011;27037;52.010;4.446;2023-08-06T12:44:44;3.35;;;0.88;;
41293;SDS011;27037;52.010;4.446;2023-08-06T12:47:09;2.85;;;0.57;;
41293;SDS011;27037;52.010;4.446;2023-08-06T12:49:35;2.20;;;0.70;;
41293;SDS011;27037;52.010;4.446;2023-08-06T12:52:01;2.15;;;0.68;;
41293;SDS011;27037;52.010;4.446;2023-08-06T12:54:29;3.05;;;0.60;;
41293;SDS011;27037;52.010;4.446;2023-08-06T12:57:01;2.90;;;0.85;;
41293;SDS011;27037;52.010;4.446;2023-08-06T12:59:27;2.05;;;0.63;;
41293;SDS011;27037;52.010;4.446;2023-08-06T13:01:52;2.67;;;0.80;;
41293;SDS011;27037;52.010;4.446;2023-08-06T13:04:18;2.53;;;0.80;;
41293;SDS011;27037;52.010;4.446;2023-08-06T13:06:44;4.93;;;0.70;;
41293;SDS011;27037;52.010;4.446;2023-08-06T13:09:09;3.80;;;0.85;;
41293;SDS011;27037;52.010;4.446;2023-08-06T13:11:35;5.05;;;0.80;;
41293;SDS011;27037;52.010;4.446;2023-08-06T13:14:11;3.85;;;0.90;;
41293;SDS011;27037;52.010;4.446;2023-08-06T13:16:39;3.72;;;0.80;;
41293;SDS011;27037;52.010;4.446;2023-08-06T13:19:06;6.75;;;0.88;;
41293;SDS011;27037;52.010;4.446;2023-08-06T13:21:58;1.83;;;0.70;;
41293;SDS011;27037;52.010;4.446;2023-08-06T13:24:30;3.05;;;1.02;;
41293;SDS011;27037;52.010;4.446;2023-08-06T13:26:56;4.32;;;0.73;;
41293;SDS011;27037;52.010;4.446;2023-08-06T13:29:22;7.50;;;1.45;;
41293;SDS011;27037;52.010;4.446;2023-08-06T13:31:47;12.18;;;2.00;;
41293;SDS011;27037;52.010;4.446;2023-08-06T13:34:13;13.05;;;2.20;;
41293;SDS011;27037;52.010;4.446;2023-08-06T13:36:41;11.57;;;1.67;;
41293;SDS011;27037;52.010;4.446;2023-08-06T13:39:07;12.82;;;1.42;;
41293;SDS011;27037;52.010;4.446;2023-08-06T13:41:33;8.45;;;1.73;;
41293;SDS011;27037;52.010;4.446;2023-08-06T13:43:58;13.30;;;1.38;;
41293;SDS011;27037;52.010;4.446;2023-08-06T13:46:24;6.45;;;1.55;;
41293;SDS011;27037;52.010;4.446;2023-08-06T13:48:50;14.23;;;1.50;;
41293;SDS011;27037;52.010;4.446;2023-08-06T13:51:16;10.82;;;1.80;;
41293;SDS011;27037;52.010;4.446;2023-08-06T13:53:42;9.63;;;1.35;;
41293;SDS011;27037;52.010;4.446;2023-08-06T13:56:10;5.93;;;1.23;;
41293;SDS011;27037;52.010;4.446;2023-08-06T13:58:36;5.78;;;1.40;;
41293;SDS011;27037;52.010;4.446;2023-08-06T14:01:02;9.68;;;1.38;;
41293;SDS011;27037;52.010;4.446;2023-08-06T14:03:28;5.78;;;1.23;;
41293;SDS011;27037;52.010;4.446;2023-08-06T14:05:54;9.32;;;1.20;;
41293;SDS011;27037;52.010;4.446;2023-08-06T14:08:25;4.85;;;1.30;;
41293;SDS011;27037;52.010;4.446;2023-08-06T14:10:53;6.70;;;1.20;;
41293;SDS011;27037;52.010;4.446;2023-08-06T14:13:19;8.55;;;1.30;;
41293;SDS011;27037;52.010;4.446;2023-08-06T14:15:45;5.20;;;1.10;;
41293;SDS011;27037;52.010;4.446;2023-08-06T14:18:14;5.15;;;1.13;;
41293;SDS011;27037;52.010;4.446;2023-08-06T14:20:41;6.65;;;1.15;;
41293;SDS011;27037;52.010;4.446;2023-08-06T14:23:07;6.85;;;1.33;;
41293;SDS011;27037;52.010;4.446;2023-08-06T14:25:33;7.13;;;1.20;;
41293;SDS011;27037;52.010;4.446;2023-08-06T14:27:58;8.13;;;1.42;;
41293;SDS011;27037;52.010;4.446;2023-08-06T14:30:24;9.80;;;1.58;;
41293;SDS011;27037;52.010;4.446;2023-08-06T14:32:50;6.78;;;1.48;;
41293;SDS011;27037;52.010;4.446;2023-08-06T14:35:15;9.30;;;1.35;;
41293;SDS011;27037;52.010;4.446;2023-08-06T14:37:41;9.98;;;1.42;;
41293;SDS011;27037;52.010;4.446;2023-08-06T14:40:07;7.75;;;1.42;;
41293;SDS011;27037;52.010;4.446;2023-08-06T14:42:33;7.80;;;1.35;;
41293;SDS011;27037;52.010;4.446;2023-08-06T14:44:59;8.32;;;1.25;;
41293;SDS011;27037;52.010;4.446;2023-08-06T14:47:25;10.80;;;1.50;;
41293;SDS011;27037;52.010;4.446;2023-08-06T14:49:50;10.75;;;1.67;;
41293;SDS011;27037;52.010;4.446;2023-08-06T14:52:16;10.45;;;1.65;;